sensor_id;sensor_type;location;lat;lon;timestamp;pressure;altitude;pressure_sealevel;temperature;humidity
38852;BME280;24605;50.092;9.182;2023-04-29T00:01:10;97532.00;;;12.49;100.00
38852;BME280;24605;50.092;9.182;2023-04-29T00:03:36;97541.09;;;12.25;100.00
38852;BME280;24605;50.092;9.182;2023-04-29T00:06:03;97529.28;;;12.14;100.00
38852;BME280;24605;50.092;9.182;2023-04-29T00:08:30;97536.66;;;12.25;100.00
38852;BME280;24605;50.092;9.182;2023-04-29T00:10:58;97522.06;;;12.22;100.00
38852;BME280;24605;50.092;9.182;2023-04-29T00:13:24;97526.09;;;12.18;100.00
38852;BME280;24605;50.092;9.182;2023-04-29T00:15:51;97523.97;;;12.07;100.00
38852;BME280;24605;50.092;9.182;2023-04-29T00:18:17;97518.78;;;12.14;100.00
38852;BME280;24605;50.092;9.182;2023-04-29T00:20:44;97465.16;;;11.86;100.00
38852;BME280;24605;50.092;9.182;2023-04-29T00:23:10;97520.28;;;12.23;100.00
38852;BME280;24605;50.092;9.182;2023-04-29T00:25:37;97519.16;;;12.39;100.00
38852;BME280;24605;50.092;9.182;2023-04-29T00:28:05;97524.19;;;12.34;100.00
38852;BME280;24605;50.092;9.182;2023-04-29T00:30:32;97521.94;;;12.31;100.00
38852;BME280;24605;50.092;9.182;2023-04-29T00:32:59;97524.88;;;12.43;100.00
38852;BME280;24605;50.092;9.182;2023-04-29T00:35:25;97527.19;;;12.31;100.00
38852;BME280;24605;50.092;9.182;2023-04-29T00:37:51;97521.69;;;12.26;100.00
38852;BME280;24605;50.092;9.182;2023-04-29T00:40:18;97527.59;;;12.28;100.00
38852;BME280;24605;50.092;9.182;2023-04-29T00:42:45;97520.56;;;12.35;100.00
38852;BME280;24605;50.092;9.182;2023-04-29T00:45:12;97522.19;;;12.36;100.00
38852;BME280;24605;50.092;9.182;2023-04-29T00:47:39;97523.34;;;12.27;100.00
38852;BME280;24605;50.092;9.182;2023-04-29T00:50:07;97520.50;;;12.28;100.00
38852;BME280;24605;50.092;9.182;2023-04-29T00:52:34;97529.38;;;12.27;100.00
38852;BME280;24605;50.092;9.182;2023-04-29T00:55:01;97530.34;;;12.19;100.00
38852;BME280;24605;50.092;9.182;2023-04-29T00:57:27;97533.34;;;12.16;100.00
38852;BME280;24605;50.092;9.182;2023-04-29T00:59:55;97523.97;;;12.07;100.00
38852;BME280;24605;50.092;9.182;2023-04-29T01:02:24;97523.16;;;12.06;100.00
38852;BME280;24605;50.092;9.182;2023-04-29T01:04:51;97541.03;;;12.18;100.00
38852;BME280;24605;50.092;9.182;2023-04-29T01:07:22;97516.66;;;12.02;100.00
38852;BME280;24605;50.092;9.182;2023-04-29T01:09:54;97514.66;;;12.04;100.00
38852;BME280;24605;50.092;9.182;2023-04-29T01:12:32;97538.84;;;12.21;100.00
38852;BME280;24605;50.092;9.182;2023-04-29T01:15:03;97538.41;;;12.18;100.00
38852;BME280;24605;50.092;9.182;2023-04-29T01:17:35;97535.97;;;12.16;100.00
38852;BME280;24605;50.092;9.182;2023-04-29T01:20:03;97541.03;;;12.18;100.00
38852;BME280;24605;50.092;9.182;2023-04-29T01:22:31;97543.00;;;12.09;100.00
38852;BME280;24605;50.092;9.182;2023-04-29T01:24:59;97543.22;;;12.14;100.00
38852;BME280;24605;50.092;9.182;2023-04-29T01:27:28;97543.44;;;12.13;100.00
38852;BME280;24605;50.092;9.182;2023-04-29T01:30:01;97538.94;;;12.06;100.00
38852;BME280;24605;50.092;9.182;2023-04-29T01:32:36;97541.94;;;12.03;100.00
38852;BME280;24605;50.092;9.182;2023-04-29T01:35:12;97543.34;;;12.06;100.00
38852;BME280;24605;50.092;9.182;2023-04-29T01:37:45;97543.34;;;12.06;100.00
38852;BME280;24605;50.092;9.182;2023-04-29T01:40:19;97519.16;;;11.89;100.00
38852;BME280;24605;50.092;9.182;2023-04-29T01:42:55;97538.88;;;12.00;100.00
38852;BME280;24605;50.092;9.182;2023-04-29T01:45:26;97510.44;;;11.88;100.00
38852;BME280;24605;50.092;9.182;2023-04-29T01:47:54;97535.03;;;12.02;100.00
38852;BME280;24605;50.092;9.182;2023-04-29T01:50:21;97542.72;;;11.82;100.00
38852;BME280;24605;50.092;9.182;2023-04-29T01:52:47;97534.81;;;11.97;100.00
38852;BME280;24605;50.092;9.182;2023-04-29T01:55:16;97521.69;;;11.82;100.00
38852;BME280;24605;50.092;9.182;2023-04-29T01:57:42;97524.84;;;11.93;100.00
38852;BME280;24605;50.092;9.182;2023-04-29T02:00:10;97533.91;;;11.90;100.00
38852;BME280;24605;50.092;9.182;2023-04-29T02:02:37;97530.88;;;11.93;100.00
38852;BME280;24605;50.092;9.182;2023-04-29T02:05:03;97534.72;;;11.90;100.00
38852;BME280;24605;50.092;9.182;2023-04-29T02:07:30;97530.25;;;11.91;100.00
38852;BME280;24605;50.092;9.182;2023-04-29T02:09:56;97540.41;;;11.94;100.00
38852;BME280;24605;50.092;9.182;2023-04-29T02:12:24;97534.50;;;11.92;100.00
38852;BME280;24605;50.092;9.182;2023-04-29T02:15:28;97536.91;;;11.87;100.00
38852;BME280;24605;50.092;9.182;2023-04-29T02:17:54;97540.09;;;11.82;100.00
38852;BME280;24605;50.092;9.182;2023-04-29T02:20:21;97534.63;;;11.84;100.00
38852;BME280;24605;50.092;9.182;2023-04-29T02:22:47;97543.06;;;11.79;100.00
38852;BME280;24605;50.092;9.182;2023-04-29T02:25:14;97548.63;;;11.69;100.00
38852;BME280;24605;50.092;9.182;2023-04-29T02:27:42;97546.09;;;11.76;100.00
38852;BME280;24605;50.092;9.182;2023-04-29T02:30:09;97549.53;;;11.76;100.00
38852;BME280;24605;50.092;9.182;2023-04-29T02:32:35;97552.25;;;11.68;100.00
38852;BME280;24605;50.092;9.182;2023-04-29T02:35:04;97556.88;;;11.66;100.00
38852;BME280;24605;50.092;9.182;2023-04-29T02:37:31;97545.38;;;11.67;100.00
38852;BME280;24605;50.092;9.182;2023-04-29T02:39:57;97557.28;;;11.63;100.00
38852;BME280;24605;50.092;9.182;2023-04-29T02:42:24;97560.88;;;11.62;100.00
38852;BME280;24605;50.092;9.182;2023-04-29T02:44:52;97562.97;;;11.67;100.00
38852;BME280;24605;50.092;9.182;2023-04-29T02:47:18;97561.44;;;11.57;100.00
38852;BME280;24605;50.092;9.182;2023-04-29T02:49:45;97520.50;;;11.26;100.00
38852;BME280;24605;50.092;9.182;2023-04-29T02:52:11;97565.88;;;11.57;100.00
38852;BME280;24605;50.092;9.182;2023-04-29T02:54:38;97560.16;;;11.53;100.00
38852;BME280;24605;50.092;9.182;2023-04-29T02:57:05;97565.88;;;11.57;100.00
38852;BME280;24605;50.092;9.182;2023-04-29T02:59:32;97567.38;;;11.66;100.00
38852;BME280;24605;50.092;9.182;2023-04-29T03:02:00;97564.22;;;11.56;100.00
38852;BME280;24605;50.092;9.182;2023-04-29T03:04:27;97557.53;;;11.53;100.00
38852;BME280;24605;50.092;9.182;2023-04-29T03:06:53;97567.13;;;11.61;100.00
38852;BME280;24605;50.092;9.182;2023-04-29T03:09:20;97563.31;;;11.64;100.00
38852;BME280;24605;50.092;9.182;2023-04-29T03:11:47;97566.16;;;11.62;100.00
38852;BME280;24605;50.092;9.182;2023-04-29T03:14:13;97564.22;;;11.56;100.00
38852;BME280;24605;50.092;9.182;2023-04-29T03:16:40;97572.09;;;11.56;100.00
38852;BME280;24605;50.092;9.182;2023-04-29T03:19:08;97564.44;;;11.54;100.00
38852;BME280;24605;50.092;9.182;2023-04-29T03:21:34;97575.13;;;11.53;100.00
38852;BME280;24605;50.092;9.182;2023-04-29T03:24:01;97572.94;;;11.56;100.00
38852;BME280;24605;50.092;9.182;2023-04-29T03:26:27;97571.13;;;11.57;100.00
38852;BME280;24605;50.092;9.182;2023-04-29T03:28:54;97575.56;;;11.56;100.00
38852;BME280;24605;50.092;9.182;2023-04-29T03:31:20;97569.88;;;11.53;100.00
38852;BME280;24605;50.092;9.182;2023-04-29T03:33:47;97565.53;;;11.45;100.00
38852;BME280;24605;50.092;9.182;2023-04-29T03:36:16;97574.59;;;11.42;100.00
38852;BME280;24605;50.092;9.182;2023-04-29T03:38:43;97570.22;;;11.50;100.00
38852;BME280;24605;50.092;9.182;2023-04-29T03:41:10;97575.59;;;11.41;100.00
38852;BME280;24605;50.092;9.182;2023-04-29T03:43:36;97574.41;;;11.44;100.00
38852;BME280;24605;50.092;9.182;2023-04-29T03:46:03;97568.25;;;11.37;100.00
38852;BME280;24605;50.092;9.182;2023-04-29T03:48:29;97579.66;;;11.29;100.00
38852;BME280;24605;50.092;9.182;2023-04-29T03:50:55;97584.19;;;11.35;100.00
38852;BME280;24605;50.092;9.182;2023-04-29T03:53:23;97578.66;;;11.30;100.00
38852;BME280;24605;50.092;9.182;2023-04-29T03:55:50;97576.34;;;11.20;100.00
38852;BME280;24605;50.092;9.182;2023-04-29T03:58:16;97594.16;;;11.25;100.00
38852;BME280;24605;50.092;9.182;2023-04-29T04:00:43;97591.97;;;11.28;100.00
38852;BME280;24605;50.092;9.182;2023-04-29T04:03:10;97588.63;;;11.20;100.00
38852;BME280;24605;50.092;9.182;2023-04-29T04:05:36;97595.34;;;11.22;100.00
38852;BME280;24605;50.092;9.182;2023-04-29T04:08:03;97599.66;;;11.15;100.00
38852;BME280;24605;50.092;9.182;2023-04-29T04:10:31;97600.38;;;11.09;100.00
38852;BME280;24605;50.092;9.182;2023-04-29T04:12:58;97538.69;;;10.68;100.00
38852;BME280;24605;50.092;9.182;2023-04-29T04:15:24;97611.34;;;10.82;100.00
38852;BME280;24605;50.092;9.182;2023-04-29T04:17:50;97601.75;;;10.90;100.00
38852;BME280;24605;50.092;9.182;2023-04-29T04:20:17;97607.09;;;10.96;100.00
38852;BME280;24605;50.092;9.182;2023-04-29T04:22:44;97613.09;;;10.67;100.00
38852;BME280;24605;50.092;9.182;2023-04-29T04:25:10;97618.44;;;10.74;100.00
38852;BME280;24605;50.092;9.182;2023-04-29T04:27:38;97628.06;;;10.81;100.00
38852;BME280;24605;50.092;9.182;2023-04-29T04:30:06;97622.72;;;10.90;100.00
38852;BME280;24605;50.092;9.182;2023-04-29T04:32:33;97622.91;;;10.88;100.00
38852;BME280;24605;50.092;9.182;2023-04-29T04:34:59;97624.97;;;10.78;100.00
38852;BME280;24605;50.092;9.182;2023-04-29T04:37:26;97629.03;;;10.80;100.00
38852;BME280;24605;50.092;9.182;2023-04-29T04:39:53;97630.63;;;10.66;100.00
38852;BME280;24605;50.092;9.182;2023-04-29T04:42:21;97640.31;;;10.66;100.00
38852;BME280;24605;50.092;9.182;2023-04-29T04:44:49;97643.25;;;10.86;100.00
38852;BME280;24605;50.092;9.182;2023-04-29T04:47:15;97642.34;;;10.79;100.00
38852;BME280;24605;50.092;9.182;2023-04-29T04:49:42;97646.34;;;10.90;100.00
38852;BME280;24605;50.092;9.182;2023-04-29T04:52:09;97642.41;;;10.86;100.00
38852;BME280;24605;50.092;9.182;2023-04-29T04:54:36;97631.03;;;10.78;100.00
38852;BME280;24605;50.092;9.182;2023-04-29T04:57:02;97646.22;;;10.83;100.00
38852;BME280;24605;50.092;9.182;2023-04-29T04:59:30;97649.25;;;10.72;100.00
38852;BME280;24605;50.092;9.182;2023-04-29T05:01:58;97647.59;;;10.79;100.00
38852;BME280;24605;50.092;9.182;2023-04-29T05:04:24;97652.53;;;10.74;100.00
38852;BME280;24605;50.092;9.182;2023-04-29T05:06:50;97661.84;;;10.76;100.00
38852;BME280;24605;50.092;9.182;2023-04-29T05:09:17;97597.03;;;10.24;100.00
38852;BME280;24605;50.092;9.182;2023-04-29T05:11:43;97663.41;;;10.86;100.00
38852;BME280;24605;50.092;9.182;2023-04-29T05:14:10;97666.75;;;10.79;100.00
38852;BME280;24605;50.092;9.182;2023-04-29T05:16:37;97667.66;;;10.87;100.00
38852;BME280;24605;50.092;9.182;2023-04-29T05:19:05;97678.22;;;10.78;100.00
38852;BME280;24605;50.092;9.182;2023-04-29T05:21:31;97669.09;;;10.89;100.00
38852;BME280;24605;50.092;9.182;2023-04-29T05:23:57;97672.53;;;10.75;100.00
38852;BME280;24605;50.092;9.182;2023-04-29T05:26:24;97676.13;;;10.74;100.00
38852;BME280;24605;50.092;9.182;2023-04-29T05:28:51;97672.81;;;10.95;100.00
38852;BME280;24605;50.092;9.182;2023-04-29T05:31:17;97678.13;;;11.40;100.00
38852;BME280;24605;50.092;9.182;2023-04-29T05:33:44;97680.94;;;11.68;100.00
38852;BME280;24605;50.092;9.182;2023-04-29T05:36:12;97680.72;;;11.85;100.00
38852;BME280;24605;50.092;9.182;2023-04-29T05:38:38;97686.81;;;11.85;100.00
38852;BME280;24605;50.092;9.182;2023-04-29T05:41:05;97685.19;;;11.84;100.00
38852;BME280;24605;50.092;9.182;2023-04-29T05:43:31;97679.41;;;11.59;100.00
38852;BME280;24605;50.092;9.182;2023-04-29T05:45:58;97689.44;;;11.40;100.00
38852;BME280;24605;50.092;9.182;2023-04-29T05:48:24;97671.88;;;11.26;100.00
38852;BME280;24605;50.092;9.182;2023-04-29T05:50:51;97685.44;;;11.15;100.00
38852;BME280;24605;50.092;9.182;2023-04-29T05:53:19;97688.91;;;11.45;100.00
38852;BME280;24605;50.092;9.182;2023-04-29T05:55:46;97695.16;;;11.44;100.00
38852;BME280;24605;50.092;9.182;2023-04-29T05:58:14;97703.22;;;11.57;100.00
38852;BME280;24605;50.092;9.182;2023-04-29T06:00:41;97700.31;;;11.52;100.00
38852;BME280;24605;50.092;9.182;2023-04-29T06:03:08;97711.00;;;11.81;100.00
38852;BME280;24605;50.092;9.182;2023-04-29T06:05:35;97714.44;;;11.81;100.00
38852;BME280;24605;50.092;9.182;2023-04-29T06:08:01;97711.91;;;11.73;100.00
38852;BME280;24605;50.092;9.182;2023-04-29T06:10:29;97712.00;;;11.80;100.00
38852;BME280;24605;50.092;9.182;2023-04-29T06:13:01;97725.03;;;11.88;100.00
38852;BME280;24605;50.092;9.182;2023-04-29T06:15:30;97723.09;;;11.82;100.00
38852;BME280;24605;50.092;9.182;2023-04-29T06:17:57;97731.91;;;12.04;100.00
38852;BME280;24605;50.092;9.182;2023-04-29T06:20:23;97738.72;;;11.98;100.00
38852;BME280;24605;50.092;9.182;2023-04-29T06:22:49;97746.56;;;12.13;100.00
38852;BME280;24605;50.092;9.182;2023-04-29T06:25:16;97753.34;;;12.22;100.00
38852;BME280;24605;50.092;9.182;2023-04-29T06:27:44;97749.38;;;11.82;100.00
38852;BME280;24605;50.092;9.182;2023-04-29T06:30:11;97742.75;;;11.56;100.00
38852;BME280;24605;50.092;9.182;2023-04-29T06:32:38;97756.97;;;11.62;100.00
38852;BME280;24605;50.092;9.182;2023-04-29T06:35:05;97749.16;;;11.38;100.00
38852;BME280;24605;50.092;9.182;2023-04-29T06:37:32;97758.53;;;11.41;100.00
38852;BME280;24605;50.092;9.182;2023-04-29T06:39:58;97743.56;;;11.03;100.00
38852;BME280;24605;50.092;9.182;2023-04-29T06:42:25;97752.97;;;11.36;100.00
38852;BME280;24605;50.092;9.182;2023-04-29T06:44:53;97754.88;;;11.42;100.00
38852;BME280;24605;50.092;9.182;2023-04-29T06:47:19;97768.00;;;11.42;100.00
38852;BME280;24605;50.092;9.182;2023-04-29T06:49:46;97772.34;;;11.35;100.00
38852;BME280;24605;50.092;9.182;2023-04-29T06:52:12;97772.63;;;11.40;100.00
38852;BME280;24605;50.092;9.182;2023-04-29T06:54:39;97778.59;;;11.49;100.00
38852;BME280;24605;50.092;9.182;2023-04-29T06:57:05;97770.13;;;11.76;100.00
38852;BME280;24605;50.092;9.182;2023-04-29T06:59:32;97779.63;;;11.78;100.00
38852;BME280;24605;50.092;9.182;2023-04-29T07:02:00;97780.88;;;11.82;100.00
38852;BME280;24605;50.092;9.182;2023-04-29T07:04:26;97784.50;;;11.51;100.00
38852;BME280;24605;50.092;9.182;2023-04-29T07:06:53;97787.22;;;11.72;100.00
38852;BME280;24605;50.092;9.182;2023-04-29T07:09:20;97785.59;;;11.86;100.00
38852;BME280;24605;50.092;9.182;2023-04-29T07:11:47;97796.63;;;11.52;100.00
38852;BME280;24605;50.092;9.182;2023-04-29T07:14:14;97793.59;;;11.63;100.00
38852;BME280;24605;50.092;9.182;2023-04-29T07:16:40;97796.34;;;11.47;100.00
38852;BME280;24605;50.092;9.182;2023-04-29T07:19:08;97802.97;;;11.57;100.00
38852;BME280;24605;50.092;9.182;2023-04-29T07:21:35;97805.22;;;11.60;100.00
38852;BME280;24605;50.092;9.182;2023-04-29T07:24:01;97807.25;;;11.73;100.00
38852;BME280;24605;50.092;9.182;2023-04-29T07:26:29;97807.63;;;11.85;100.00
38852;BME280;24605;50.092;9.182;2023-04-29T07:28:56;97808.53;;;11.78;100.00
38852;BME280;24605;50.092;9.182;2023-04-29T07:31:22;97808.97;;;11.81;100.00
38852;BME280;24605;50.092;9.182;2023-04-29T07:33:49;97807.25;;;11.73;100.00
38852;BME280;24605;50.092;9.182;2023-04-29T07:36:16;97815.03;;;11.67;100.00
38852;BME280;24605;50.092;9.182;2023-04-29T07:38:43;97816.59;;;11.91;100.00
38852;BME280;24605;50.092;9.182;2023-04-29T07:41:09;97818.69;;;11.81;100.00
38852;BME280;24605;50.092;9.182;2023-04-29T07:43:36;97832.50;;;11.21;100.00
38852;BME280;24605;50.092;9.182;2023-04-29T07:46:03;97822.72;;;11.68;100.00
38852;BME280;24605;50.092;9.182;2023-04-29T07:48:30;97820.06;;;11.53;100.00
38852;BME280;24605;50.092;9.182;2023-04-29T07:50:56;97833.50;;;11.58;100.00
38852;BME280;24605;50.092;9.182;2023-04-29T07:53:25;97840.16;;;11.46;100.00
38852;BME280;24605;50.092;9.182;2023-04-29T07:55:52;97843.09;;;11.66;100.00
38852;BME280;24605;50.092;9.182;2023-04-29T07:58:19;97842.47;;;11.79;100.00
38852;BME280;24605;50.092;9.182;2023-04-29T08:00:45;97852.69;;;11.59;100.00
38852;BME280;24605;50.092;9.182;2023-04-29T08:03:12;97853.31;;;11.99;100.00
38852;BME280;24605;50.092;9.182;2023-04-29T08:05:39;97853.06;;;12.09;100.00
38852;BME280;24605;50.092;9.182;2023-04-29T08:08:07;97851.69;;;11.98;100.00
38852;BME280;24605;50.092;9.182;2023-04-29T08:10:37;97864.47;;;11.63;100.00
38852;BME280;24605;50.092;9.182;2023-04-29T08:13:05;97855.63;;;11.94;100.00
38852;BME280;24605;50.092;9.182;2023-04-29T08:15:32;97851.28;;;11.71;100.00
38852;BME280;24605;50.092;9.182;2023-04-29T08:17:58;97867.88;;;11.49;100.00
38852;BME280;24605;50.092;9.182;2023-04-29T08:20:25;97874.38;;;11.76;100.00
38852;BME280;24605;50.092;9.182;2023-04-29T08:22:53;97868.16;;;11.54;100.00
38852;BME280;24605;50.092;9.182;2023-04-29T08:25:19;97873.81;;;11.42;100.00
38852;BME280;24605;50.092;9.182;2023-04-29T08:27:47;97872.97;;;11.65;100.00
38852;BME280;24605;50.092;9.182;2023-04-29T08:30:13;97863.91;;;11.29;100.00
38852;BME280;24605;50.092;9.182;2023-04-29T08:32:40;97883.19;;;11.60;100.00
38852;BME280;24605;50.092;9.182;2023-04-29T08:35:07;97881.25;;;11.39;100.00
38852;BME280;24605;50.092;9.182;2023-04-29T08:37:34;97897.53;;;11.72;100.00
38852;BME280;24605;50.092;9.182;2023-04-29T08:41:11;97899.66;;;11.54;100.00
38852;BME280;24605;50.092;9.182;2023-04-29T08:43:39;97901.59;;;11.60;100.00
38852;BME280;24605;50.092;9.182;2023-04-29T08:46:06;97901.19;;;11.48;100.00
38852;BME280;24605;50.092;9.182;2023-04-29T08:48:33;97898.63;;;11.63;100.00
38852;BME280;24605;50.092;9.182;2023-04-29T08:51:00;97900.16;;;11.72;100.00
38852;BME280;24605;50.092;9.182;2023-04-29T08:53:27;97914.84;;;11.67;100.00
38852;BME280;24605;50.092;9.182;2023-04-29T08:55:54;97907.81;;;11.82;100.00
38852;BME280;24605;50.092;9.182;2023-04-29T08:58:24;97907.69;;;12.14;100.00
38852;BME280;24605;50.092;9.182;2023-04-29T09:00:51;97899.38;;;11.49;100.00
38852;BME280;24605;50.092;9.182;2023-04-29T09:03:23;97916.59;;;12.28;100.00
38852;BME280;24605;50.092;9.182;2023-04-29T09:05:53;97915.91;;;11.72;100.00
38852;BME280;24605;50.092;9.182;2023-04-29T09:08:20;97921.28;;;12.17;100.00
38852;BME280;24605;50.092;9.182;2023-04-29T09:10:49;97919.19;;;11.74;100.00
38852;BME280;24605;50.092;9.182;2023-04-29T09:13:24;97921.53;;;11.69;100.00
38852;BME280;24605;50.092;9.182;2023-04-29T09:15:51;97918.44;;;11.66;100.00
38852;BME280;24605;50.092;9.182;2023-04-29T09:18:43;97923.81;;;11.26;100.00
38852;BME280;24605;50.092;9.182;2023-04-29T09:21:15;97921.06;;;11.42;100.00
38852;BME280;24605;50.092;9.182;2023-04-29T09:23:43;97926.03;;;11.14;100.00
38852;BME280;24605;50.092;9.182;2023-04-29T09:26:09;97930.97;;;11.32;100.00
38852;BME280;24605;50.092;9.182;2023-04-29T09:28:37;97928.41;;;11.24;100.00
38852;BME280;24605;50.092;9.182;2023-04-29T09:31:11;97922.13;;;11.33;100.00
38852;BME280;24605;50.092;9.182;2023-04-29T09:33:50;97924.09;;;11.78;100.00
38852;BME280;24605;50.092;9.182;2023-04-29T09:36:37;97927.38;;;11.95;100.00
38852;BME280;24605;50.092;9.182;2023-04-29T09:39:03;97927.00;;;11.83;100.00
38852;BME280;24605;50.092;9.182;2023-04-29T09:41:36;97937.03;;;11.79;100.00
38852;BME280;24605;50.092;9.182;2023-04-29T09:44:04;97939.50;;;12.19;100.00
38852;BME280;24605;50.092;9.182;2023-04-29T09:46:31;97933.81;;;12.30;100.00
38852;BME280;24605;50.092;9.182;2023-04-29T09:48:59;97941.97;;;12.80;100.00
38852;BME280;24605;50.092;9.182;2023-04-29T09:51:25;97933.63;;;12.77;100.00
38852;BME280;24605;50.092;9.182;2023-04-29T09:53:52;97938.63;;;12.57;100.00
38852;BME280;24605;50.092;9.182;2023-04-29T09:56:19;97945.53;;;12.43;100.00
38852;BME280;24605;50.092;9.182;2023-04-29T09:58:45;97946.38;;;12.05;100.00
38852;BME280;24605;50.092;9.182;2023-04-29T10:01:13;97940.09;;;12.59;100.00
38852;BME280;24605;50.092;9.182;2023-04-29T10:03:44;97948.41;;;12.48;100.00
38852;BME280;24605;50.092;9.182;2023-04-29T10:06:11;97944.56;;;12.05;100.00
38852;BME280;24605;50.092;9.182;2023-04-29T10:08:38;97953.97;;;12.38;100.00
38852;BME280;24605;50.092;9.182;2023-04-29T10:11:06;97959.50;;;11.82;100.00
38852;BME280;24605;50.092;9.182;2023-04-29T10:13:34;97954.97;;;11.75;100.00
38852;BME280;24605;50.092;9.182;2023-04-29T10:16:10;97948.97;;;12.43;100.00
38852;BME280;24605;50.092;9.182;2023-04-29T10:18:48;97943.16;;;12.78;100.00
38852;BME280;24605;50.092;9.182;2023-04-29T10:21:17;97945.03;;;12.39;100.00
38852;BME280;24605;50.092;9.182;2023-04-29T10:23:47;97963.91;;;12.28;100.00
38852;BME280;24605;50.092;9.182;2023-04-29T10:26:15;97959.19;;;12.23;100.00
38852;BME280;24605;50.092;9.182;2023-04-29T10:28:42;97961.28;;;12.28;100.00
38852;BME280;24605;50.092;9.182;2023-04-29T10:31:11;97962.75;;;12.60;100.00
38852;BME280;24605;50.092;9.182;2023-04-29T10:33:39;97963.03;;;12.80;100.00
38852;BME280;24605;50.092;9.182;2023-04-29T10:36:11;97962.22;;;12.65;100.00
38852;BME280;24605;50.092;9.182;2023-04-29T10:38:41;97959.50;;;12.73;100.00
38852;BME280;24605;50.092;9.182;2023-04-29T10:41:18;97956.16;;;13.16;100.00
38852;BME280;24605;50.092;9.182;2023-04-29T10:43:49;97961.53;;;13.44;100.00
38852;BME280;24605;50.092;9.182;2023-04-29T10:46:17;97952.38;;;13.04;100.00
38852;BME280;24605;50.092;9.182;2023-04-29T10:48:44;97951.19;;;13.43;100.00
38852;BME280;24605;50.092;9.182;2023-04-29T10:51:12;97947.94;;;13.62;100.00
38852;BME280;24605;50.092;9.182;2023-04-29T10:54:06;97955.81;;;13.84;100.00
38852;BME280;24605;50.092;9.182;2023-04-29T10:56:51;97955.63;;;14.07;98.89
38852;BME280;24605;50.092;9.182;2023-04-29T10:59:20;97946.63;;;13.95;99.41
38852;BME280;24605;50.092;9.182;2023-04-29T11:01:48;97948.06;;;13.98;95.08
38852;BME280;24605;50.092;9.182;2023-04-29T11:04:16;97956.97;;;14.25;94.01
38852;BME280;24605;50.092;9.182;2023-04-29T11:06:46;97959.56;;;14.47;93.25
38852;BME280;24605;50.092;9.182;2023-04-29T11:09:17;97957.94;;;14.81;92.59
38852;BME280;24605;50.092;9.182;2023-04-29T11:11:47;97963.13;;;14.39;91.62
38852;BME280;24605;50.092;9.182;2023-04-29T11:14:15;97952.53;;;14.61;90.84
38852;BME280;24605;50.092;9.182;2023-04-29T11:16:48;97949.84;;;14.54;90.59
38852;BME280;24605;50.092;9.182;2023-04-29T11:19:16;97961.56;;;14.45;86.74
38852;BME280;24605;50.092;9.182;2023-04-29T11:21:45;97961.16;;;14.13;89.60
38852;BME280;24605;50.092;9.182;2023-04-29T11:24:12;97954.41;;;15.09;86.04
38852;BME280;24605;50.092;9.182;2023-04-29T11:26:41;97958.56;;;15.51;83.05
38852;BME280;24605;50.092;9.182;2023-04-29T11:29:09;97946.09;;;15.18;85.07
38852;BME280;24605;50.092;9.182;2023-04-29T11:31:36;97962.13;;;15.86;82.93
38852;BME280;24605;50.092;9.182;2023-04-29T11:34:04;97956.19;;;15.97;80.50
38852;BME280;24605;50.092;9.182;2023-04-29T11:36:31;97956.16;;;15.77;81.87
38852;BME280;24605;50.092;9.182;2023-04-29T11:39:00;97962.44;;;15.49;87.54
38852;BME280;24605;50.092;9.182;2023-04-29T11:41:27;97960.03;;;15.74;84.43
38852;BME280;24605;50.092;9.182;2023-04-29T11:43:54;97960.44;;;15.64;84.05
38852;BME280;24605;50.092;9.182;2023-04-29T11:46:22;97959.34;;;15.32;84.76
38852;BME280;24605;50.092;9.182;2023-04-29T11:48:49;97966.50;;;14.90;85.15
38852;BME280;24605;50.092;9.182;2023-04-29T11:51:17;97968.13;;;14.91;84.77
38852;BME280;24605;50.092;9.182;2023-04-29T11:53:44;97961.81;;;14.56;87.09
38852;BME280;24605;50.092;9.182;2023-04-29T11:56:12;97970.84;;;15.04;82.95
38852;BME280;24605;50.092;9.182;2023-04-29T11:58:38;97976.19;;;14.47;85.97
38852;BME280;24605;50.092;9.182;2023-04-29T12:01:05;97974.34;;;14.76;87.82
38852;BME280;24605;50.092;9.182;2023-04-29T12:03:32;97983.69;;;13.93;94.06
38852;BME280;24605;50.092;9.182;2023-04-29T12:06:00;97983.56;;;14.02;95.06
38852;BME280;24605;50.092;9.182;2023-04-29T12:08:28;97978.19;;;13.88;97.17
38852;BME280;24605;50.092;9.182;2023-04-29T12:10:55;97976.25;;;13.97;96.92
38852;BME280;24605;50.092;9.182;2023-04-29T12:13:25;97987.91;;;13.66;96.44
38852;BME280;24605;50.092;9.182;2023-04-29T12:15:53;97984.00;;;13.25;98.61
38852;BME280;24605;50.092;9.182;2023-04-29T12:18:20;97979.72;;;13.39;98.19
38852;BME280;24605;50.092;9.182;2023-04-29T12:20:48;97967.00;;;12.76;99.54
38852;BME280;24605;50.092;9.182;2023-04-29T12:23:17;97988.72;;;13.15;100.00
38852;BME280;24605;50.092;9.182;2023-04-29T12:25:47;97992.78;;;13.47;98.00
38852;BME280;24605;50.092;9.182;2023-04-29T12:28:15;97984.81;;;13.26;98.15
38852;BME280;24605;50.092;9.182;2023-04-29T12:30:44;97994.81;;;13.30;98.89
38852;BME280;24605;50.092;9.182;2023-04-29T12:33:15;97993.38;;;13.65;98.51
38852;BME280;24605;50.092;9.182;2023-04-29T12:35:41;97993.34;;;13.86;97.43
38852;BME280;24605;50.092;9.182;2023-04-29T12:38:08;97981.56;;;13.82;95.58
38852;BME280;24605;50.092;9.182;2023-04-29T12:40:34;97999.38;;;13.80;96.88
38852;BME280;24605;50.092;9.182;2023-04-29T12:43:06;97956.16;;;13.16;98.97
38852;BME280;24605;50.092;9.182;2023-04-29T12:45:32;97995.31;;;13.77;97.26
38852;BME280;24605;50.092;9.182;2023-04-29T12:48:01;97982.63;;;13.66;95.48
38852;BME280;24605;50.092;9.182;2023-04-29T12:50:32;98001.03;;;13.81;96.48
38852;BME280;24605;50.092;9.182;2023-04-29T12:52:59;98002.41;;;13.55;98.43
38852;BME280;24605;50.092;9.182;2023-04-29T12:55:26;98011.41;;;13.31;97.06
38852;BME280;24605;50.092;9.182;2023-04-29T12:57:52;98008.00;;;13.15;100.00